createdAt,value
2023-02-01T00:03:32.051Z,-1.01
2023-02-01T00:08:55.898Z,-1.00
2023-02-01T00:14:18.708Z,-1.09
2023-02-01T00:19:40.787Z,-0.92
2023-02-01T00:25:03.061Z,-0.92
2023-02-01T00:30:25.567Z,-0.89
2023-02-01T00:35:47.907Z,-0.99
2023-02-01T00:41:14.677Z,-0.84
2023-02-01T00:46:36.900Z,-1.00
2023-02-01T00:51:59.004Z,-0.86
2023-02-01T00:57:21.712Z,-1.01
2023-02-01T01:02:46.740Z,-1.01
2023-02-01T01:08:08.612Z,-1.08
2023-02-01T01:13:30.695Z,-0.95
2023-02-01T01:18:52.819Z,-1.03
2023-02-01T01:24:15.205Z,-1.06
2023-02-01T01:29:37.925Z,-1.22
2023-02-01T01:35:00.606Z,-0.92
2023-02-01T01:40:23.560Z,-1.03
2023-02-01T01:45:46.007Z,-1.14
2023-02-01T01:51:12.255Z,-0.98
2023-02-01T01:56:37.148Z,-1.10
2023-02-01T02:01:59.132Z,-1.22
2023-02-01T02:07:32.510Z,-1.03
2023-02-01T02:12:54.417Z,-0.96
2023-02-01T02:18:53.726Z,-0.92
2023-02-01T02:24:40.837Z,-1.07
2023-02-01T02:30:25.470Z,-0.93
2023-02-01T02:36:05.304Z,-0.99
2023-02-01T02:41:54.267Z,-1.00
2023-02-01T02:47:33.173Z,-1.17
2023-02-01T02:53:32.629Z,-1.17
2023-02-01T02:59:14.956Z,-1.14
2023-02-01T03:04:37.585Z,-1.07
2023-02-01T03:10:05.569Z,-1.16
2023-02-01T03:16:15.016Z,-1.00
2023-02-01T03:21:39.953Z,-1.02
2023-02-01T03:27:26.227Z,-1.05
2023-02-01T03:33:01.225Z,-1.14
2023-02-01T03:38:33.578Z,-1.07
2023-02-01T03:44:18.147Z,-1.01
2023-02-01T03:49:46.683Z,-1.08
2023-02-01T03:55:11.977Z,-1.17
2023-02-01T04:00:34.440Z,-1.09
2023-02-01T04:05:56.814Z,-1.17
2023-02-01T04:11:22.773Z,-1.06
2023-02-01T04:16:45.461Z,-1.11
2023-02-01T04:22:07.687Z,-1.14
2023-02-01T04:27:29.989Z,-1.08
2023-02-01T04:32:51.582Z,-1.13
2023-02-01T04:38:13.635Z,-1.07
2023-02-01T04:43:35.626Z,-1.05
2023-02-01T04:48:57.908Z,-1.03
2023-02-01T04:54:20.560Z,-1.08
2023-02-01T04:59:42.686Z,-1.04
2023-02-01T05:05:04.648Z,-1.05
2023-02-01T05:10:26.517Z,-1.04
2023-02-01T05:15:48.699Z,-1.21
2023-02-01T05:21:10.488Z,-1.11
2023-02-01T05:26:33.463Z,-1.02
2023-02-01T05:31:55.712Z,-1.02
2023-02-01T05:37:18.171Z,-1.06
2023-02-01T05:42:40.119Z,-1.17
2023-02-01T05:48:02.237Z,-1.06
2023-02-01T05:53:24.587Z,-1.06
2023-02-01T05:58:46.832Z,-1.03
2023-02-01T06:04:08.971Z,-1.03
2023-02-01T06:09:31.612Z,-0.99
2023-02-01T06:14:53.948Z,-0.99
2023-02-01T06:20:17.125Z,-0.93
2023-02-01T06:25:41.674Z,-1.02
2023-02-01T06:31:10.477Z,-0.90
2023-02-01T06:36:32.640Z,-0.99
2023-02-01T06:41:54.357Z,-0.98
2023-02-01T06:47:16.443Z,-0.82
2023-02-01T06:52:38.798Z,-0.90
2023-02-01T06:58:02.550Z,-0.91
2023-02-01T07:03:29.679Z,-0.82
2023-02-01T07:08:52.365Z,-0.81
2023-02-01T07:14:14.540Z,-0.85
2023-02-01T07:19:39.459Z,-0.80
2023-02-01T07:25:02.006Z,-0.85
2023-02-01T07:30:25.284Z,-0.77
2023-02-01T07:35:48.066Z,-0.83
2023-02-01T07:41:11.083Z,-0.79
2023-02-01T07:46:33.189Z,-0.87
2023-02-01T07:51:55.453Z,-0.93
2023-02-01T07:57:17.487Z,-0.82
2023-02-01T08:02:39.345Z,-0.71
2023-02-01T08:08:01.457Z,-0.73
2023-02-01T08:13:23.378Z,-0.81
2023-02-01T08:18:46.096Z,-0.73
2023-02-01T08:24:10.183Z,-0.83
2023-02-01T08:29:32.635Z,-0.77
2023-02-01T08:34:55.068Z,-0.73
2023-02-01T08:40:17.714Z,-0.67
2023-02-01T08:45:41.544Z,-0.68
2023-02-01T08:51:13.185Z,-0.60
2023-02-01T08:56:35.607Z,-0.68
2023-02-01T09:01:57.992Z,-0.57
2023-02-01T09:07:20.445Z,-0.64
2023-02-01T09:12:42.601Z,-0.64
2023-02-01T09:18:05.167Z,-0.68
2023-02-01T09:23:27.564Z,-0.64
2023-02-01T09:28:50.003Z,-0.58
2023-02-01T09:34:13.682Z,-0.40
2023-02-01T09:39:36.037Z,-0.42
2023-02-01T09:45:16.235Z,-0.59
2023-02-01T09:50:45.190Z,-0.44
2023-02-01T09:56:13.547Z,-0.41
2023-02-01T10:01:37.986Z,-0.45
2023-02-01T10:07:16.826Z,-0.29
2023-02-01T10:13:05.449Z,-0.12
2023-02-01T10:18:45.817Z,0.09
2023-02-01T10:24:43.860Z,0.03
2023-02-01T10:30:16.305Z,0.01
2023-02-01T10:35:40.023Z,-0.08
2023-02-01T10:41:23.310Z,-0.01
2023-02-01T10:46:45.306Z,0.00
2023-02-01T10:52:22.667Z,-0.16
2023-02-01T10:58:00.495Z,-0.17
2023-02-01T11:03:57.567Z,-0.47
2023-02-01T11:09:23.478Z,-0.18
2023-02-01T11:14:49.190Z,-0.25
2023-02-01T11:20:25.447Z,-0.28
2023-02-01T11:25:56.944Z,-0.24
2023-02-01T11:37:01.567Z,-0.45
2023-02-01T11:42:24.315Z,-0.38
2023-02-01T11:47:47.587Z,-0.42
2023-02-01T11:53:49.745Z,-0.55
2023-02-01T11:59:56.410Z,-0.50
2023-02-01T12:05:38.126Z,-0.51
2023-02-01T12:11:31.420Z,-0.47
2023-02-01T12:17:30.887Z,-0.39
2023-02-01T12:23:05.187Z,-0.45
2023-02-01T12:28:55.344Z,-0.50
2023-02-01T12:34:45.174Z,-0.52
2023-02-01T12:40:35.358Z,-0.63
2023-02-01T12:46:03.455Z,-0.67
2023-02-01T12:51:34.868Z,-0.69
2023-02-01T12:57:04.584Z,-0.72
2023-02-01T13:02:43.896Z,-0.71
2023-02-01T13:08:09.317Z,-0.64
2023-02-01T13:13:44.282Z,-0.73
2023-02-01T13:19:43.258Z,-0.71
2023-02-01T13:25:14.565Z,-0.78
2023-02-01T13:30:49.474Z,-0.76
2023-02-01T13:36:37.359Z,-0.79
2023-02-01T13:42:26.192Z,-0.85
2023-02-01T13:47:54.377Z,-1.05
2023-02-01T13:53:23.401Z,-1.14
2023-02-01T13:58:47.325Z,-1.00
2023-02-01T14:04:48.421Z,-0.97
2023-02-01T14:10:57.642Z,-0.90
2023-02-01T14:16:19.692Z,-0.98
2023-02-01T14:22:00.243Z,-0.96
2023-02-01T14:27:28.680Z,-1.00
2023-02-01T14:32:50.801Z,-0.91
2023-02-01T14:38:13.109Z,-0.97
2023-02-01T14:44:13.534Z,-0.96
2023-02-01T14:49:43.896Z,-0.98
2023-02-01T14:55:15.726Z,-1.10
2023-02-01T15:00:37.726Z,-1.05
2023-02-01T15:06:02.307Z,-1.07
2023-02-01T15:11:24.677Z,-1.15
2023-02-01T15:16:55.189Z,-1.24
2023-02-01T15:22:21.325Z,-1.28
2023-02-01T15:27:43.313Z,-1.24
2023-02-01T15:33:23.536Z,-1.30
2023-02-01T15:38:45.985Z,-1.36
2023-02-01T15:44:34.633Z,-1.31
2023-02-01T15:49:58.767Z,-1.39
2023-02-01T15:55:42.317Z,-1.40
2023-02-01T16:01:08.347Z,-1.48
2023-02-01T16:06:32.838Z,-1.62
2023-02-01T16:12:01.377Z,-1.57
2023-02-01T16:17:23.429Z,-1.81
2023-02-01T16:22:45.863Z,-1.66
2023-02-01T16:28:13.241Z,-1.73
2023-02-01T16:33:44.075Z,-1.74
2023-02-01T16:39:06.212Z,-1.79
2023-02-01T16:44:28.787Z,-1.79
2023-02-01T16:49:54.626Z,-1.85
2023-02-01T16:55:23.576Z,-1.77
2023-02-01T17:00:47.333Z,-1.73
2023-02-01T17:06:13.312Z,-1.84
2023-02-01T17:11:40.955Z,-1.79
2023-02-01T17:17:15.709Z,-1.74
2023-02-01T17:22:39.439Z,-1.79
2023-02-01T17:28:01.777Z,-1.83
2023-02-01T17:33:29.382Z,-1.79
2023-02-01T17:39:05.583Z,-1.80
2023-02-01T17:44:31.520Z,-1.81
2023-02-01T17:49:57.142Z,-1.94
2023-02-01T17:55:25.557Z,-1.83
2023-02-01T18:00:52.140Z,-1.80
2023-02-01T18:06:18.951Z,-2.00
2023-02-01T18:11:42.327Z,-2.15
2023-02-01T18:17:04.309Z,-2.02
2023-02-01T18:22:26.435Z,-2.09
2023-02-01T18:27:50.513Z,-2.10
2023-02-01T18:33:14.435Z,-2.01
2023-02-01T18:38:36.459Z,-2.14
2023-02-01T18:43:58.588Z,-2.07
2023-02-01T18:49:22.905Z,-2.12
2023-02-01T18:54:58.808Z,-2.09
2023-02-01T19:00:23.064Z,-2.02
2023-02-01T19:05:47.135Z,-2.16
2023-02-01T19:11:10.707Z,-2.10
2023-02-01T19:16:34.445Z,-2.21
2023-02-01T19:21:56.477Z,-2.17
2023-02-01T19:27:18.454Z,-2.18
2023-02-01T19:32:43.808Z,-2.14
2023-02-01T19:38:06.741Z,-2.17
2023-02-01T19:43:29.682Z,-2.24
2023-02-01T19:48:52.081Z,-2.09
2023-02-01T19:54:14.149Z,-2.17
2023-02-01T19:59:36.307Z,-2.19
2023-02-01T20:04:57.971Z,-2.21
2023-02-01T20:10:20.625Z,-2.18
2023-02-01T20:15:43.318Z,-2.29
2023-02-01T20:21:05.641Z,-2.20
2023-02-01T20:26:31.368Z,-2.14
2023-02-01T20:31:53.253Z,-2.15
2023-02-01T20:37:15.505Z,-2.15
2023-02-01T20:42:37.487Z,-2.09
2023-02-01T20:47:59.753Z,-2.11
2023-02-01T20:53:26.636Z,-2.36
2023-02-01T20:58:49.338Z,-2.36
2023-02-01T21:04:14.215Z,-2.36
2023-02-01T21:09:36.343Z,-2.34
2023-02-01T21:14:58.837Z,-2.29
2023-02-01T21:20:20.884Z,-2.18
2023-02-01T21:25:44.225Z,-2.14
2023-02-01T21:31:07.486Z,-2.12
2023-02-01T21:36:32.486Z,-2.17
2023-02-01T21:42:13.307Z,-2.20
2023-02-01T21:53:46.250Z,-2.18
2023-02-01T21:59:10.648Z,-2.15
2023-02-01T22:04:33.566Z,-2.17
2023-02-01T22:09:55.607Z,-2.27
2023-02-01T22:15:18.131Z,-2.23
2023-02-01T22:20:40.336Z,-2.34
2023-02-01T22:26:07.080Z,-2.24
2023-02-01T22:31:29.215Z,-2.39
2023-02-01T22:36:51.330Z,-2.49
2023-02-01T22:42:13.507Z,-2.49
2023-02-01T22:47:35.423Z,-2.34
2023-02-01T22:52:57.623Z,-2.41
2023-02-01T22:58:20.175Z,-2.30
2023-02-01T23:03:41.881Z,-2.52
2023-02-01T23:09:15.663Z,-2.25
2023-02-01T23:14:57.679Z,-2.34
2023-02-01T23:20:20.419Z,-2.46
2023-02-01T23:25:42.740Z,-2.26
2023-02-01T23:31:13.401Z,-2.32
2023-02-01T23:36:35.832Z,-2.29
2023-02-01T23:41:57.705Z,-2.31
2023-02-01T23:47:22.275Z,-2.21
2023-02-01T23:52:44.475Z,-2.24
2023-02-01T23:58:06.258Z,-2.24
